world map with SLCO marked

SLCO - Airport

This information may not be accurate or current and is not valid for navigation or flight planning. No warranty of fitness for any purpose is made or implied.

flag of Pandoflag of Bolivia

Donate via PayPal

Additional information is available on the NEW Great Circle Mapper

Location
City:  Cobija, Nicolás Suárez, Pando, Bolivia
Name:Capitan Anibal Arab
ICAO / IATA:SLCO / CIJ

Details
Type:Airport (Aerodrome, Airfield)
Latitude:11°02'26"S (-11.040435)
Longitude:68°46'59"W (-68.782971)
Datum:WGS 1984
Elevation:892 ft (272 m)
Runways:1
Longest:6562 × 98 ft (2000 × 30 m)

Time
Timezone:UTC+30:08 (DST+32:08)
Local Time:

Weather
METAR:SLCO  041400Z 12003KT 9999 FEW012 BKN080 27/24 Q1014
TAF:SLCO  (expired)

Related Locations
Nearby:
Farthest:CXR: 12295 mi / 19786 km
Nha Trang (Cam Ranh) [Cam Ranh Intl], VN

Find:

   beyond  
but within

Other Information
Maps:
Sources:

  


 


Great Circle Mapper   Great Circle Mapper
Great Circle Mapper FAQ   Great Circle Mapper FAQ
  Karl's Home Page
KLS˛   KLS˛ Home
   GC on Facebook
Airlines of the World   Airlines of the World
Donate via PayPal


Copyright © 2004-2019, Karl L. Swartz. All rights reserved.
All trademarks mentioned herein belong to their respective owners.

Please see credits for attribution and copyright information.

Karl Swartz <karl@kls2.com>
  Powered by FreeBSD
Valid HTML 4.01!
Labeled with ICRA
hCard Microformat
Geo Microformat